Time;durP1;ratioP1;P1;durP2;ratioP2;P2;SDS_P1;SDS_P2;PMS_P1;PMS_P2;Temp;Humidity;BMP_temperature;BMP_pressure;BME280_temperature;BME280_humidity;BME280_pressure;Samples;Min_cycle;Max_cycle;Signal;HPM_P1;HPM_P2
2022/07/11 00:00:22;;;;;;;6.40;1.30;;;;;;;13.10;57.23;99239.48;108822;1281;22186;-84
2022/07/11 00:03:20;;;;;;;7.60;1.10;;;;;;;13.02;57.26;99241.02;108952;1281;23192;-84
2022/07/11 00:05:47;;;;;;;8.00;1.30;;;;;;;12.94;57.29;99242.16;108960;1281;22566;-84
2022/07/11 00:08:16;;;;;;;6.20;1.30;;;;;;;12.92;57.30;99242.71;108922;1281;22166;-84
2022/07/11 00:10:46;;;;;;;11.30;1.40;;;;;;;12.88;57.39;99239.60;108828;1281;22372;-85
2022/07/11 00:13:21;;;;;;;6.30;1.20;;;;;;;12.84;57.36;99237.10;108824;1281;22395;-85
2022/07/11 00:16:02;;;;;;;7.90;1.10;;;;;;;12.82;57.41;99237.77;108731;1280;22389;-84
2022/07/11 00:18:49;;;;;;;8.20;1.20;;;;;;;12.78;57.41;99236.97;108799;1282;22410;-84
2022/07/11 00:21:25;;;;;;;6.10;1.70;;;;;;;12.77;57.45;99236.01;108844;1280;22395;-84
2022/07/11 00:24:00;;;;;;;6.10;0.90;;;;;;;12.78;57.46;99235.08;108822;1281;24892;-85
2022/07/11 00:26:27;;;;;;;5.90;1.20;;;;;;;12.77;57.60;99235.29;108959;1281;22351;-85
2022/07/11 00:29:18;;;;;;;9.50;1.00;;;;;;;12.81;57.63;99239.05;108917;1281;23478;-84
2022/07/11 00:32:11;;;;;;;8.30;1.10;;;;;;;12.79;57.62;99235.02;108958;1281;23204;-84
2022/07/11 00:34:52;;;;;;;7.80;1.00;;;;;;;12.72;57.51;99230.48;109174;1281;22358;-84
2022/07/11 00:37:23;;;;;;;7.90;1.10;;;;;;;12.70;57.45;99226.79;108960;1281;22373;-84
2022/07/11 00:40:04;;;;;;;10.00;1.20;;;;;;;12.69;57.58;99226.45;108820;1281;22366;-85
2022/07/11 00:42:41;;;;;;;7.40;1.30;;;;;;;12.63;57.77;99224.19;109174;1281;23024;-84
2022/07/11 00:45:13;;;;;;;6.80;0.90;;;;;;;12.62;57.61;99224.15;108800;1281;22495;-84
2022/07/11 00:47:58;;;;;;;8.80;1.10;;;;;;;12.58;57.71;99219.08;108926;1281;22567;-85
2022/07/11 00:50:30;;;;;;;6.50;1.10;;;;;;;12.54;57.77;99217.59;109171;1281;22554;-85
2022/07/11 00:52:59;;;;;;;6.10;0.90;;;;;;;12.55;57.82;99224.37;109150;1280;22465;-84
2022/07/11 00:55:34;;;;;;;7.20;1.10;;;;;;;12.50;57.86;99223.08;108826;1281;23100;-84
2022/07/11 00:58:15;;;;;;;6.70;1.30;;;;;;;12.45;57.78;99223.88;108866;1281;22543;-84
2022/07/11 01:00:51;;;;;;;8.00;1.20;;;;;;;12.43;57.92;99220.61;108760;1281;22352;-85
2022/07/11 01:03:31;;;;;;;8.50;0.90;;;;;;;12.42;57.86;99216.35;108792;1281;23614;-85
2022/07/11 01:06:27;;;;;;;7.30;1.30;;;;;;;12.41;57.92;99218.99;108991;1281;22147;-84
2022/07/11 01:09:02;;;;;;;7.90;1.20;;;;;;;12.43;57.99;99216.16;108855;1281;22419;-84
2022/07/11 01:11:54;;;;;;;6.40;0.90;;;;;;;12.40;58.06;99219.41;108753;1280;23044;-85
2022/07/11 01:14:29;;;;;;;9.00;1.20;;;;;;;12.35;58.05;99219.84;108977;1281;22561;-84
2022/07/11 01:17:01;;;;;;;9.70;1.30;;;;;;;12.33;58.06;99223.03;108936;1281;22190;-84
2022/07/11 01:19:32;;;;;;;8.90;1.00;;;;;;;12.29;58.09;99220.25;108815;1281;22376;-85
2022/07/11 01:22:06;;;;;;;8.30;1.10;;;;;;;12.27;58.10;99219.95;108855;1281;22174;-85
2022/07/11 01:24:44;;;;;;;9.30;1.50;;;;;;;12.25;58.04;99223.47;108955;1281;22354;-85
2022/07/11 01:28:30;;;;;;;10.80;1.40;;;;;;;12.22;58.29;99220.96;108958;1281;22458;-84
2022/07/11 01:30:59;;;;;;;7.90;1.30;;;;;;;12.20;58.20;99225.58;109066;1281;22413;-86
2022/07/11 01:33:53;;;;;;;7.40;1.10;;;;;;;12.18;58.21;99230.71;108949;1281;23116;-86
2022/07/11 01:36:37;;;;;;;9.20;1.30;;;;;;;12.19;58.35;99226.77;108986;1281;22994;-84
2022/07/11 01:39:52;;;;;;;6.90;1.10;;;;;;;12.20;58.31;99224.86;108762;1281;22260;-84
2022/07/11 01:42:33;;;;;;;8.60;1.20;;;;;;;12.25;58.49;99225.58;108929;1281;23118;-85
2022/07/11 01:45:06;;;;;;;6.40;0.70;;;;;;;12.34;58.40;99226.84;108950;1281;22350;-84
2022/07/11 01:47:54;;;;;;;;;;;;;;;;;;;;;
2022/07/11 01:51:01;;;;;;;6.30;1.10;;;;;;;12.52;58.51;99216.52;109243;1280;22162;-84
2022/07/11 01:54:06;;;;;;;7.60;1.10;;;;;;;12.59;58.39;99207.59;108993;1280;22189;-85
2022/07/11 01:56:44;;;;;;;6.20;1.00;;;;;;;12.65;58.47;99207.23;108901;1281;22464;-84
2022/07/11 01:59:47;;;;;;;7.80;0.90;;;;;;;12.71;58.49;99207.35;108796;1280;22671;-85
2022/07/11 02:02:48;;;;;;;8.00;1.20;;;;;;;12.74;58.58;99210.28;108724;1282;22311;-84
2022/07/11 02:05:56;;;;;;;6.50;1.10;;;;;;;12.78;58.42;99211.48;108961;1281;22371;-84
2022/07/11 02:08:43;;;;;;;6.80;1.00;;;;;;;12.79;58.48;99212.83;108696;1281;22421;-85
2022/07/11 02:12:15;;;;;;;8.80;1.30;;;;;;;12.80;58.57;99216.64;108797;1281;22321;-85
2022/07/11 02:16:11;;;;;;;7.70;1.20;;;;;;;12.84;58.62;99225.08;108160;1289;22521;-84
2022/07/11 02:19:17;;;;;;;;;;;;;;;;;;;;;
2022/07/11 02:22:34;;;;;;;6.00;1.20;;;;;;;12.89;58.55;99222.55;107433;1296;22515;-84
2022/07/11 02:25:37;;;;;;;8.40;1.40;;;;;;;12.95;58.57;99217.95;107314;1295;22495;-85
2022/07/11 02:29:02;;;;;;;;;;;;;;;;;;;;;
2022/07/11 02:32:00;;;;;;;7.10;0.90;;;;;;;13.02;58.72;99226.19;107315;1295;23511;-84
2022/07/11 02:35:49;;;;;;;;;;;;;;;;;;;;;
2022/07/11 02:38:36;;;;;;;5.60;1.10;;;;;;;13.03;58.72;99224.48;107290;1296;22400;-84
2022/07/11 02:42:09;;;;;;;6.00;0.90;;;;;;;13.05;58.70;99228.48;107298;1296;22455;-84
2022/07/11 02:45:20;;;;;;;;;;;;;;;;;;;;;
2022/07/11 02:48:45;;;;;;;7.30;1.00;;;;;;;13.05;58.92;99231.66;107422;1296;22249;-84
2022/07/11 02:52:04;;;;;;;8.30;1.10;;;;;;;13.09;58.74;99236.02;107630;1286;23056;-85
2022/07/11 02:54:56;;;;;;;9.00;1.20;;;;;;;13.11;58.79;99230.43;108591;1281;22381;-85
2022/07/11 02:57:28;;;;;;;9.80;1.40;;;;;;;13.14;58.84;99230.07;108959;1281;23126;-87
2022/07/11 02:59:58;;;;;;;7.60;0.90;;;;;;;13.15;58.84;99231.03;108797;1281;22415;-85
2022/07/11 03:02:28;;;;;;;3.90;0.80;;;;;;;13.18;58.82;99229.73;108788;1281;23045;-86
2022/07/11 03:05:00;;;;;;;7.70;1.10;;;;;;;13.16;58.82;99229.67;109012;1281;22905;-85
2022/07/11 03:07:32;;;;;;;9.60;1.10;;;;;;;13.16;58.87;99231.14;108805;1281;22315;-86
2022/07/11 03:10:09;;;;;;;7.30;1.10;;;;;;;13.18;58.97;99241.30;108794;1282;22292;-85
2022/07/11 03:12:41;;;;;;;7.50;1.20;;;;;;;13.18;58.86;99247.21;108735;1280;22514;-84
2022/07/11 03:15:16;;;;;;;8.70;1.30;;;;;;;13.17;58.99;99242.45;108762;1282;22525;-84
2022/07/11 03:17:48;;;;;;;9.80;1.60;;;;;;;13.17;59.04;99238.55;108759;1281;22363;-85
2022/07/11 03:20:20;;;;;;;8.90;1.20;;;;;;;13.15;59.11;99233.88;108773;1282;22479;-85
2022/07/11 03:22:50;;;;;;;9.50;1.00;;;;;;;13.19;59.02;99244.09;108907;1281;22375;-86
2022/07/11 03:25:25;;;;;;;8.10;1.10;;;;;;;13.23;59.07;99240.27;108984;1281;22457;-86
2022/07/11 03:28:00;;;;;;;6.50;0.90;;;;;;;13.24;59.22;99236.23;108858;1278;22366;-86
2022/07/11 03:30:33;;;;;;;7.70;1.00;;;;;;;13.29;59.17;99241.23;109012;1280;22980;-86
2022/07/11 03:33:00;;;;;;;4.00;0.70;;;;;;;13.30;59.08;99242.77;108770;1279;22667;-87
2022/07/11 03:35:42;;;;;;;6.50;1.00;;;;;;;13.30;59.26;99237.02;108835;1281;22168;-86
2022/07/11 03:38:10;;;;;;;8.00;1.10;;;;;;;13.31;59.24;99236.58;108966;1281;23076;-85
2022/07/11 03:40:47;;;;;;;5.10;0.80;;;;;;;13.34;59.24;99238.51;108935;1281;22688;-85
2022/07/11 03:43:17;;;;;;;7.50;1.10;;;;;;;13.38;59.19;99246.04;109277;1280;22476;-86
2022/07/11 03:45:58;;;;;;;9.60;0.90;;;;;;;13.38;59.22;99241.17;108916;1280;22530;-85
2022/07/11 03:48:34;;;;;;;6.80;1.00;;;;;;;13.41;59.27;99243.41;108832;1281;22280;-86
2022/07/11 03:51:08;;;;;;;6.90;1.10;;;;;;;13.45;59.29;99246.30;109188;1281;22333;-85
2022/07/11 03:53:45;;;;;;;5.40;1.10;;;;;;;13.46;59.20;99243.39;108870;1281;22450;-87
2022/07/11 03:56:18;;;;;;;6.50;1.20;;;;;;;13.53;59.25;99247.27;108937;1281;22359;-85
2022/07/11 03:58:45;;;;;;;7.70;1.10;;;;;;;13.57;59.25;99246.98;109012;1281;22438;-88
2022/07/11 04:01:15;;;;;;;8.40;1.30;;;;;;;13.61;59.19;99245.23;108806;1281;22958;-85
2022/07/11 04:03:48;;;;;;;6.10;0.90;;;;;;;13.67;59.33;99250.47;108996;1281;22247;-86
2022/07/11 04:06:21;;;;;;;8.30;1.10;;;;;;;13.68;59.32;99248.59;108776;1281;22515;-86
2022/07/11 04:08:53;;;;;;;7.00;1.50;;;;;;;13.70;59.26;99251.26;108727;1281;22231;-88
2022/07/11 04:11:29;;;;;;;6.10;1.30;;;;;;;13.73;59.22;99256.19;109230;1280;22966;-86
2022/07/11 04:14:01;;;;;;;5.60;1.30;;;;;;;13.79;59.32;99257.88;108810;1281;22369;-85
2022/07/11 04:16:36;;;;;;;7.80;1.10;;;;;;;13.83;59.28;99251.45;108809;1281;22317;-85
2022/07/11 04:19:04;;;;;;;4.30;0.90;;;;;;;13.93;59.31;99255.30;108798;1281;22390;-85
2022/07/11 04:21:36;;;;;;;8.10;1.10;;;;;;;14.00;59.31;99258.60;108888;1281;22183;-86
2022/07/11 04:24:11;;;;;;;5.20;0.90;;;;;;;14.07;59.24;99264.34;108891;1281;22389;-86
2022/07/11 04:26:40;;;;;;;6.80;0.90;;;;;;;14.11;59.18;99264.73;109058;1281;22429;-85
2022/07/11 04:29:13;;;;;;;6.40;1.10;;;;;;;14.16;59.14;99264.24;109025;1281;23472;-86
2022/07/11 04:31:41;;;;;;;7.70;0.90;;;;;;;14.23;59.12;99265.84;108999;1281;22419;-85
2022/07/11 04:34:25;;;;;;;8.00;1.00;;;;;;;14.26;59.16;99262.73;108945;1281;22392;-86
2022/07/11 04:37:05;;;;;;;7.70;1.10;;;;;;;14.36;59.13;99263.48;109041;1280;22366;-86
2022/07/11 04:39:34;;;;;;;6.30;0.90;;;;;;;14.41;59.22;99259.35;109210;1280;22428;-86
2022/07/11 04:42:16;;;;;;;6.60;0.60;;;;;;;14.50;59.35;99260.23;109246;1280;22346;-86
2022/07/11 04:44:54;;;;;;;7.70;0.90;;;;;;;14.56;59.22;99261.69;108788;1281;22447;-86
2022/07/11 04:47:23;;;;;;;10.90;1.20;;;;;;;14.64;59.30;99264.36;108986;1281;23052;-86
2022/07/11 04:50:03;;;;;;;7.10;1.10;;;;;;;14.72;59.28;99263.88;108909;1281;22537;-87
2022/07/11 04:52:44;;;;;;;5.30;1.20;;;;;;;14.80;59.46;99264.92;109109;1279;22290;-86
2022/07/11 04:55:21;;;;;;;5.90;0.80;;;;;;;14.93;59.24;99266.39;108852;1279;23186;-88
2022/07/11 04:57:56;;;;;;;9.30;1.20;;;;;;;15.04;59.12;99267.55;109191;1280;22182;-86
2022/07/11 05:00:34;;;;;;;8.60;1.10;;;;;;;15.18;59.35;99274.20;109166;1281;23063;-87
2022/07/11 05:03:01;;;;;;;5.70;1.00;;;;;;;15.22;59.22;99269.19;108971;1279;22227;-86
2022/07/11 05:05:31;;;;;;;10.10;1.30;;;;;;;15.20;59.01;99274.08;109007;1280;22374;-87
2022/07/11 05:08:00;;;;;;;10.20;1.20;;;;;;;15.13;59.12;99272.50;109247;1281;22506;-87
2022/07/11 05:10:49;;;;;;;7.90;1.10;;;;;;;15.10;59.03;99280.63;109180;1280;22519;-86
2022/07/11 05:13:24;;;;;;;8.60;1.10;;;;;;;15.06;59.02;99277.62;109187;1280;23072;-87
2022/07/11 05:15:53;;;;;;;8.30;0.90;;;;;;;15.00;59.02;99282.04;109026;1279;22403;-86
2022/07/11 05:18:35;;;;;;;10.90;1.00;;;;;;;15.08;59.08;99284.63;109005;1281;22892;-86
2022/07/11 05:21:35;;;;;;;;;;;;;;;;;;;;;
2022/07/11 05:24:25;;;;;;;9.20;0.90;;;;;;;15.14;58.99;99283.20;109178;1279;22541;-86
2022/07/11 05:27:05;;;;;;;6.90;0.80;;;;;;;15.17;59.16;99286.51;109186;1280;23239;-85
2022/07/11 05:29:40;;;;;;;9.70;1.10;;;;;;;15.32;59.17;99290.89;109029;1280;23421;-87
2022/07/11 05:32:52;;;;;;;7.60;1.20;;;;;;;15.26;59.11;99291.38;109035;1281;22254;-86
2022/07/11 05:35:36;;;;;;;5.00;0.70;;;;;;;15.34;59.33;99292.71;109192;1279;23046;-87
2022/07/11 05:38:47;;;;;;;5.00;0.80;;;;;;;15.38;59.05;99294.88;109171;1280;23392;-88
2022/07/11 05:41:54;;;;;;;6.50;1.20;;;;;;;15.39;59.07;99296.77;109183;1281;22404;-85
2022/07/11 05:44:55;;;;;;;6.80;0.90;;;;;;;15.38;59.19;99299.02;109111;1279;22568;-85
2022/07/11 05:47:41;;;;;;;;;;;;;;;;;;;;;
2022/07/11 05:51:01;;;;;;;6.10;0.80;;;;;;;15.50;59.14;99300.27;109138;1280;22460;-85
2022/07/11 05:53:38;;;;;;;5.90;0.70;;;;;;;15.56;59.23;99298.30;109190;1279;22499;-86
2022/07/11 05:56:22;;;;;;;5.40;0.60;;;;;;;15.63;59.20;99299.09;109047;1281;22235;-87
2022/07/11 05:59:47;;;;;;;;;;;;;;;;;;;;;
2022/07/11 06:03:16;;;;;;;;;;;;;;;;;;;;;
2022/07/11 06:06:04;;;;;;;5.70;0.70;;;;;;;15.64;58.86;99315.33;109160;1281;22216;-85
2022/07/11 06:08:57;;;;;;;8.70;0.80;;;;;;;15.69;58.70;99302.86;108989;1281;23122;-86
2022/07/11 06:12:20;;;;;;;;;;;;;;;;;;;;;
2022/07/11 06:15:25;;;;;;;6.60;0.80;;;;;;;16.07;58.78;99303.20;109238;1280;23100;-89
2022/07/11 06:18:23;;;;;;;7.20;1.00;;;;;;;16.19;58.58;99303.20;109040;1281;22457;-86
2022/07/11 06:22:30;;;;;;;5.20;0.70;;;;;;;16.55;58.92;99302.65;109241;1280;22217;-87
2022/07/11 06:25:00;;;;;;;7.20;1.00;;;;;;;16.98;58.59;99306.52;108466;1286;22393;-86
2022/07/11 06:28:01;;;;;;;;;;;;;;;;;;;;;
2022/07/11 06:30:39;;;;;;;6.80;0.80;;;;;;;17.52;58.49;99300.18;108366;1287;22359;-86
2022/07/11 06:33:08;;;;;;;7.40;0.80;;;;;;;17.74;58.00;99291.92;108424;1287;22418;-86
2022/07/11 06:35:40;;;;;;;5.10;0.90;;;;;;;17.82;57.96;99296.42;108143;1287;23048;-87
2022/07/11 06:38:07;;;;;;;6.70;1.20;;;;;;;17.71;57.76;99295.13;108373;1287;22368;-85
2022/07/11 06:40:39;;;;;;;6.10;0.80;;;;;;;17.71;57.93;99294.62;108240;1286;22216;-89
2022/07/11 06:43:11;;;;;;;6.60;1.10;;;;;;;17.76;57.51;99297.73;108378;1286;22353;-86
2022/07/11 06:45:39;;;;;;;4.80;0.70;;;;;;;17.64;57.58;99292.55;108352;1287;23155;-91
2022/07/11 06:48:19;;;;;;;8.30;1.20;;;;;;;17.62;57.66;99296.61;108360;1286;22359;-88
2022/07/11 06:50:51;;;;;;;7.30;0.90;;;;;;;17.78;58.29;99291.98;108146;1287;22173;-88
2022/07/11 06:53:21;;;;;;;5.40;0.90;;;;;;;18.00;57.96;99292.45;108356;1286;22386;-87
2022/07/11 06:55:58;;;;;;;5.80;1.00;;;;;;;17.94;57.35;99298.43;108350;1287;22530;-89
2022/07/11 06:58:34;;;;;;;5.80;0.90;;;;;;;17.81;57.15;99299.02;108405;1287;22528;-86
2022/07/11 07:01:08;;;;;;;10.20;1.00;;;;;;;17.76;57.31;99294.86;108653;1281;22319;-87
2022/07/11 07:03:38;;;;;;;5.70;0.90;;;;;;;17.72;57.50;99291.79;109022;1280;22347;-88
2022/07/11 07:06:25;;;;;;;6.50;0.80;;;;;;;17.70;57.72;99293.05;109136;1281;22387;-90
2022/07/11 07:09:08;;;;;;;5.70;0.80;;;;;;;17.63;57.27;99291.58;109051;1281;22595;-85
2022/07/11 07:11:41;;;;;;;7.70;1.00;;;;;;;17.58;57.76;99298.54;108813;1281;22399;-89
2022/07/11 07:14:08;;;;;;;8.80;1.00;;;;;;;17.56;57.50;99299.24;108806;1279;22525;-86
2022/07/11 07:16:42;;;;;;;6.50;0.90;;;;;;;17.60;57.81;99299.27;108797;1281;22346;-87
2022/07/11 07:31:25;;;;;;;8.60;1.10;;;;;;;19.47;56.34;99289.60;103016;1310;558410;-88
2022/07/11 07:34:27;;;;;;;10.90;1.20;;;;;;;19.43;56.42;99289.98;102227;1274;5343502;-88
2022/07/11 07:37:10;;;;;;;8.20;1.30;;;;;;;19.24;56.96;99292.32;106113;1274;24203;-89
2022/07/11 07:40:00;;;;;;;7.00;1.20;;;;;;;19.08;56.80;99294.18;105922;1273;22540;-87
2022/07/11 07:42:41;;;;;;;6.00;1.00;;;;;;;18.84;57.07;99299.90;106304;1273;25364;-89
2022/07/11 07:45:09;;;;;;;4.80;1.00;;;;;;;18.55;56.76;99306.38;106202;1273;24193;-87
2022/07/11 07:47:49;;;;;;;6.50;1.00;;;;;;;18.27;56.61;99304.70;106083;1273;22842;-89
2022/07/11 07:50:25;;;;;;;8.10;1.00;;;;;;;18.01;56.74;99303.67;105994;1274;24210;-86
2022/07/11 07:53:28;;;;;;;6.70;0.90;;;;;;;17.96;57.08;99300.11;105994;1273;22814;-90
2022/07/11 07:59:29;;;;;;;5.80;1.00;;;;;;;17.97;56.80;99305.05;106026;1273;22548;-89
2022/07/11 08:02:23;;;;;;;9.20;1.10;;;;;;;17.99;56.99;99308.91;105979;1273;24206;-87
2022/07/11 08:05:20;;;;;;;6.60;1.20;;;;;;;18.05;57.18;99310.64;106017;1273;24318;-86
2022/07/11 08:08:37;;;;;;;;;;;;;;;;;;;;;
2022/07/11 08:11:48;;;;;;;5.50;1.00;;;;;;;17.35;56.95;99336.73;106593;1275;22730;-87
2022/07/11 08:15:04;;;;;;;6.80;1.00;;;;;;;16.84;57.55;99344.64;106481;1274;22546;-86
2022/07/11 08:17:56;;;;;;;6.20;1.10;;;;;;;16.50;58.00;99342.00;106308;1275;25439;-88
2022/07/11 08:20:57;;;;;;;8.40;1.10;;;;;;;16.33;58.02;99338.45;106103;1276;23707;-88
2022/07/11 08:23:51;;;;;;;;;;;;;;;;;;;;;
2022/07/11 08:26:28;;;;;;;4.90;0.80;;;;;;;16.49;58.19;99335.80;106154;1274;22700;-88
2022/07/11 08:29:19;;;;;;;8.80;1.20;;;;;;;16.54;58.19;99335.94;106004;1275;22477;-88
2022/07/11 08:32:16;;;;;;;;;;;;;;;;;;;;;
2022/07/11 08:34:54;;;;;;;8.70;1.30;;;;;;;16.47;58.26;99338.73;106572;1276;22564;-88
2022/07/11 08:37:47;;;;;;;5.60;1.60;;;;;;;16.48;58.45;99339.34;106198;1276;23961;-90
2022/07/11 08:40:54;;;;;;;8.10;1.30;;;;;;;16.64;58.67;99337.84;106411;1276;22585;-90
2022/07/11 08:43:48;;;;;;;6.70;1.20;;;;;;;17.08;59.06;99332.88;106136;1276;22592;-88
2022/07/11 08:46:39;;;;;;;8.60;1.40;;;;;;;17.49;58.58;99332.02;106594;1276;25335;-88
2022/07/11 08:49:25;;;;;;;5.30;1.10;;;;;;;17.56;58.76;99331.02;106177;1273;22669;-89
2022/07/11 08:52:19;;;;;;;5.90;1.40;;;;;;;17.89;59.05;99328.29;106349;1273;25432;-88
2022/07/11 08:54:56;;;;;;;7.70;1.20;;;;;;;18.07;58.40;99330.47;106356;1273;22538;-89
2022/07/11 08:57:47;;;;;;;6.50;1.00;;;;;;;18.06;58.18;99331.33;106564;1273;24239;-87
2022/07/11 09:00:45;;;;;;;6.70;1.20;;;;;;;17.89;58.01;99333.13;107145;1273;22820;-89
2022/07/11 09:03:25;;;;;;;8.90;1.30;;;;;;;17.64;57.90;99328.55;106077;1273;22524;-86
2022/07/11 09:06:15;;;;;;;7.00;0.90;;;;;;;17.83;58.61;99325.16;106442;1273;22607;-90
2022/07/11 09:09:00;;;;;;;5.40;1.00;;;;;;;18.06;58.12;99321.57;106190;1273;22668;-87
2022/07/11 09:11:53;;;;;;;5.70;1.00;;;;;;;18.10;58.64;99321.34;106310;1273;22542;-91
2022/07/11 09:14:56;;;;;;;6.30;1.10;;;;;;;18.08;58.16;99320.70;106407;1273;25256;-88
2022/07/11 09:17:33;;;;;;;4.60;1.10;;;;;;;18.01;58.80;99314.72;106136;1273;22544;-86
2022/07/11 09:20:12;;;;;;;7.00;1.20;;;;;;;18.16;58.55;99312.30;106813;1273;22527;-89
2022/07/11 09:26:05;;;;;;;9.00;0.90;;;;;;;18.62;58.29;99307.67;106341;1273;25548;-86
2022/07/11 09:29:44;;;;;;;;;;;;;;;;;;;;;
2022/07/11 09:33:12;;;;;;;6.10;1.10;;;;;;;19.25;58.75;99301.16;105884;1280;25488;-87
2022/07/11 09:35:55;;;;;;;7.00;1.10;;;;;;;19.53;57.91;99303.66;105401;1281;22532;-87
2022/07/11 09:39:00;;;;;;;5.20;0.80;;;;;;;19.73;57.96;99296.52;105863;1280;22550;-87
2022/07/11 09:42:05;;;;;;;9.00;1.30;;;;;;;19.65;57.80;99297.74;105301;1284;22808;-84
2022/07/11 09:44:45;;;;;;;5.40;0.80;;;;;;;19.79;57.49;99289.80;105583;1284;25332;-85
2022/07/11 09:47:22;;;;;;;6.90;1.20;;;;;;;19.84;56.98;99292.16;105122;1286;26453;-87
2022/07/11 09:49:53;;;;;;;7.50;0.90;;;;;;;19.67;56.38;99291.39;105019;1286;24259;-88
2022/07/11 09:52:32;;;;;;;6.90;1.00;;;;;;;19.64;56.79;99291.64;105251;1286;25255;-89
2022/07/11 09:55:46;;;;;;;6.70;0.90;;;;;;;19.70;56.80;99297.88;105113;1286;22650;-86
2022/07/11 09:58:25;;;;;;;7.00;0.80;;;;;;;19.69;56.44;99289.52;105359;1284;24290;-86
2022/07/11 10:01:00;;;;;;;7.90;0.80;;;;;;;19.86;56.41;99285.94;105201;1286;24451;-86
2022/07/11 10:03:38;;;;;;;3.90;0.80;;;;;;;20.10;56.37;99284.46;105208;1286;22665;-87
2022/07/11 10:06:27;;;;;;;5.50;0.80;;;;;;;20.13;55.86;99282.13;105318;1286;22994;-86
2022/07/11 10:09:06;;;;;;;4.50;0.80;;;;;;;20.17;56.22;99278.41;105698;1279;24265;-86
2022/07/11 10:12:02;;;;;;;5.80;0.90;;;;;;;20.54;55.67;99280.04;105535;1281;23971;-86
2022/07/11 10:14:50;;;;;;;4.20;0.60;;;;;;;20.68;56.10;99271.69;105350;1281;24198;-87
2022/07/11 10:17:25;;;;;;;5.60;0.80;;;;;;;21.10;56.10;99270.34;105476;1281;22644;-85
2022/07/11 10:20:17;;;;;;;5.20;0.80;;;;;;;21.41;56.07;99274.90;106232;1274;22547;-86
2022/07/11 10:23:13;;;;;;;4.90;0.80;;;;;;;21.44;55.27;99271.94;105842;1273;22561;-85
2022/07/11 10:26:50;;;;;;;6.50;1.00;;;;;;;21.55;54.97;99270.98;106143;1273;24247;-86
2022/07/11 10:29:36;;;;;;;5.90;0.80;;;;;;;21.70;54.02;99269.27;106287;1279;22779;-85
2022/07/11 10:32:26;;;;;;;2.90;0.60;;;;;;;21.54;54.13;99266.92;105614;1281;25562;-85
2022/07/11 10:35:18;;;;;;;3.90;0.70;;;;;;;21.42;54.53;99269.30;105382;1282;22701;-86
2022/07/11 10:38:43;;;;;;;5.50;0.70;;;;;;;21.28;53.79;99268.42;105744;1281;24506;-90
2022/07/11 10:41:11;;;;;;;;;;;;;;;;;;;;;
2022/07/11 10:44:00;;;;;;;5.20;0.90;;;;;;;20.89;53.25;99274.92;105591;1279;24375;-89
2022/07/11 10:46:54;;;;;;;;;;;;;;;;;;;;;
2022/07/11 10:49:59;;;;;;;8.10;0.70;;;;;;;20.16;53.86;99277.61;105759;1279;22784;-85
2022/07/11 10:52:34;;;;;;;5.40;0.70;;;;;;;19.73;54.22;99275.02;105723;1279;24296;-86
2022/07/11 10:55:44;;;;;;;4.90;0.90;;;;;;;19.46;54.44;99285.30;105737;1280;22058;-85
2022/07/11 10:58:31;;;;;;;8.50;1.00;;;;;;;19.19;54.78;99292.60;105773;1279;25569;-86
2022/07/11 11:01:16;;;;;;;4.50;0.70;;;;;;;19.18;54.77;99290.90;105948;1273;22801;-86
2022/07/11 11:03:44;;;;;;;4.20;0.50;;;;;;;19.27;54.70;99286.92;106165;1273;25510;-86
2022/07/11 11:06:20;;;;;;;7.50;1.00;;;;;;;19.32;54.27;99286.00;106021;1275;22708;-86
2022/07/11 11:09:32;;;;;;;;;;;;;;;;;;;;;
2022/07/11 11:13:13;;;;;;;4.00;0.50;;;;;;;19.81;54.40;99261.19;106186;1274;22610;-86
2022/07/11 11:17:08;;;;;;;6.10;1.00;;;;;;;20.12;54.24;99271.52;106172;1275;22830;-84
2022/07/11 11:20:39;;;;;;;4.80;1.00;;;;;;;20.10;53.94;99270.73;106014;1274;22742;-85
2022/07/11 11:24:00;;;;;;;;;;;;;;;;;;;;;
2022/07/11 11:27:18;;;;;;;4.20;0.50;;;;;;;20.56;52.98;99268.03;105824;1277;22624;-87
2022/07/11 11:30:05;;;;;;;4.60;0.70;;;;;;;20.28;52.87;99279.40;105691;1277;22747;-88
2022/07/11 11:32:38;;;;;;;6.50;0.80;;;;;;;20.54;52.97;99279.26;105451;1277;22550;-86
2022/07/11 11:35:32;;;;;;;;;;;;;;;;;;;;;
2022/07/11 11:38:13;;;;;;;5.00;1.00;;;;;;;21.51;52.94;99256.05;105839;1278;25482;-84
2022/07/11 11:40:58;;;;;;;3.00;0.60;;;;;;;21.73;52.73;99264.97;105863;1279;24359;-86
2022/07/11 11:43:52;;;;;;;4.60;0.80;;;;;;;21.58;51.74;99271.80;105758;1280;24293;-87
2022/07/11 11:46:28;;;;;;;5.50;0.50;;;;;;;21.19;51.62;99276.20;106139;1278;22546;-85
2022/07/11 11:49:14;;;;;;;4.70;0.60;;;;;;;20.79;51.95;99281.77;105961;1279;25358;-89
2022/07/11 11:52:03;;;;;;;3.30;0.40;;;;;;;21.19;51.93;99275.69;105856;1278;22592;-88
2022/07/11 11:54:39;;;;;;;4.70;0.60;;;;;;;21.53;52.03;99267.56;105733;1278;26752;-87
2022/07/11 11:57:40;;;;;;;3.20;0.40;;;;;;;21.68;51.15;99268.45;105941;1275;26486;-87
2022/07/11 12:00:53;;;;;;;4.90;0.50;;;;;;;21.89;51.83;99263.59;106418;1274;24287;-86
2022/07/11 12:03:53;;;;;;;4.30;0.70;;;;;;;22.46;51.94;99261.16;106203;1275;22058;-82
2022/07/11 12:06:57;;;;;;;7.80;0.80;;;;;;;22.41;50.63;99268.68;106432;1273;22676;-89
2022/07/11 12:09:52;;;;;;;5.50;0.70;;;;;;;22.08;49.96;99268.36;106193;1274;26481;-85
2022/07/11 12:12:49;;;;;;;3.00;0.40;;;;;;;21.64;51.04;99265.31;105884;1276;23936;-85
2022/07/11 12:16:39;;;;;;;4.10;0.60;;;;;;;21.35;50.68;99275.80;106148;1275;24430;-87
2022/07/11 12:18:30;;;;;;;2.90;0.70;;;;;;;21.05;50.86;99280.96;106017;1274;24231;-84
2022/07/11 12:21:19;;;;;;;5.50;0.80;;;;;;;21.03;51.26;99277.79;106037;1276;25338;-85
2022/07/11 12:23:55;;;;;;;3.90;0.60;;;;;;;21.27;51.18;99271.98;106095;1275;22557;-88
2022/07/11 12:26:43;;;;;;;5.00;0.70;;;;;;;21.29;50.83;99274.83;106244;1274;22538;-89
2022/07/11 12:29:29;;;;;;;3.80;0.80;;;;;;;21.26;50.21;99276.48;106082;1275;25240;-86
2022/07/11 12:32:22;;;;;;;4.90;0.50;;;;;;;21.12;50.66;99271.77;106031;1275;22684;-88
2022/07/11 12:35:30;;;;;;;6.80;0.70;;;;;;;21.38;49.71;99269.81;106055;1275;22649;-88
2022/07/11 12:38:51;;;;;;;3.40;0.50;;;;;;;21.62;50.24;99273.71;106208;1275;22717;-89
2022/07/11 12:41:31;;;;;;;2.90;0.50;;;;;;;21.61;50.15;99270.19;106093;1274;22713;-87
2022/07/11 12:47:03;;;;;;;5.90;0.70;;;;;;;21.53;50.38;99275.44;106595;1273;25458;-85
2022/07/11 12:49:33;;;;;;;6.40;0.80;;;;;;;21.51;49.66;99282.35;106215;1274;22890;-86
2022/07/11 12:52:08;;;;;;;5.80;0.60;;;;;;;21.44;50.14;99282.20;105916;1276;25409;-86
2022/07/11 12:54:44;;;;;;;4.40;0.70;;;;;;;21.31;50.17;99285.14;106047;1276;22653;-90
2022/07/11 12:57:25;;;;;;;7.30;0.60;;;;;;;20.92;49.64;99313.41;106228;1274;22737;-89
2022/07/11 13:00:12;;;;;;;8.40;0.90;;;;;;;20.13;50.25;99342.43;106457;1274;23149;-90
2022/07/11 13:02:50;;;;;;;6.80;0.80;;;;;;;19.29;51.51;99359.70;106573;1275;22720;-90
2022/07/11 13:05:21;;;;;;;3.80;0.70;;;;;;;18.56;51.68;99351.90;106470;1273;22830;-87
2022/07/11 13:11:00;;;;;;;4.00;0.50;;;;;;;17.92;52.20;99337.36;106272;1274;26501;-89
2022/07/11 13:13:41;;;;;;;5.60;0.60;;;;;;;17.65;52.76;99336.11;106166;1274;22604;-89
2022/07/11 13:16:17;;;;;;;9.40;1.30;;;;;;;17.64;53.19;99330.36;106143;1274;25360;-90
2022/07/11 13:19:15;;;;;;;5.10;0.60;;;;;;;17.73;53.07;99321.74;105976;1274;25398;-89
2022/07/11 13:22:17;;;;;;;6.30;0.70;;;;;;;17.89;53.62;99320.78;106189;1276;25362;-89
2022/07/11 13:25:10;;;;;;;4.90;1.10;;;;;;;17.84;53.36;99321.10;106044;1275;25308;-89
2022/07/11 13:27:58;;;;;;;5.30;1.10;;;;;;;17.80;53.60;99323.27;106135;1274;22778;-89
2022/07/11 13:30:34;;;;;;;4.10;0.60;;;;;;;17.70;53.46;99327.52;106319;1276;22739;-87
2022/07/11 13:33:18;;;;;;;4.70;0.70;;;;;;;17.48;53.34;99336.40;106125;1276;22614;-84
2022/07/11 13:35:58;;;;;;;5.90;0.70;;;;;;;17.24;53.41;99337.13;106219;1273;24245;-90
2022/07/11 13:38:31;;;;;;;2.70;0.60;;;;;;;16.98;53.31;99340.11;106210;1276;25491;-90
2022/07/11 13:41:55;;;;;;;4.90;0.70;;;;;;;16.78;53.60;99347.71;106087;1275;22547;-87
2022/07/11 13:44:56;;;;;;;5.30;0.80;;;;;;;16.64;53.65;99346.75;106442;1273;22576;-88
2022/07/11 13:47:51;;;;;;;5.30;0.70;;;;;;;16.51;53.83;99344.81;106300;1276;22566;-87
2022/07/11 13:50:28;;;;;;;4.80;0.70;;;;;;;16.53;53.96;99341.65;106267;1274;24057;-87
2022/07/11 13:53:23;;;;;;;3.80;0.90;;;;;;;16.61;53.90;99345.56;106132;1275;24190;-91